sensor_id;sensor_type;location;lat;lon;timestamp;P1;durP1;ratioP1;P2;durP2;ratioP2
45692;SDS011;31402;44.752;-0.374;2022-10-16T00:01:45;4.03;;;2.25;;
45692;SDS011;31402;44.752;-0.374;2022-10-16T00:04:11;5.70;;;2.50;;
45692;SDS011;31402;44.752;-0.374;2022-10-16T00:06:38;5.78;;;2.67;;
45692;SDS011;31402;44.752;-0.374;2022-10-16T00:09:04;6.67;;;2.30;;
45692;SDS011;31402;44.752;-0.374;2022-10-16T00:11:34;4.97;;;2.55;;
45692;SDS011;31402;44.752;-0.374;2022-10-16T00:14:02;5.93;;;2.50;;
45692;SDS011;31402;44.752;-0.374;2022-10-16T00:16:31;6.40;;;2.30;;
45692;SDS011;31402;44.752;-0.374;2022-10-16T00:18:57;6.73;;;2.53;;
45692;SDS011;31402;44.752;-0.374;2022-10-16T00:21:24;5.97;;;2.50;;
45692;SDS011;31402;44.752;-0.374;2022-10-16T00:24:02;5.27;;;2.43;;
45692;SDS011;31402;44.752;-0.374;2022-10-16T00:26:31;9.35;;;2.60;;
45692;SDS011;31402;44.752;-0.374;2022-10-16T00:28:58;6.63;;;2.40;;
45692;SDS011;31402;44.752;-0.374;2022-10-16T00:31:24;7.17;;;2.40;;
45692;SDS011;31402;44.752;-0.374;2022-10-16T00:33:50;4.85;;;2.38;;
45692;SDS011;31402;44.752;-0.374;2022-10-16T00:36:17;3.93;;;2.40;;
45692;SDS011;31402;44.752;-0.374;2022-10-16T00:38:45;5.30;;;2.47;;
45692;SDS011;31402;44.752;-0.374;2022-10-16T00:41:12;6.32;;;2.45;;
45692;SDS011;31402;44.752;-0.374;2022-10-16T00:46:10;6.20;;;2.30;;
45692;SDS011;31402;44.752;-0.374;2022-10-16T00:48:44;6.18;;;2.58;;
45692;SDS011;31402;44.752;-0.374;2022-10-16T00:51:32;5.33;;;2.60;;
45692;SDS011;31402;44.752;-0.374;2022-10-16T00:54:03;6.90;;;2.57;;
45692;SDS011;31402;44.752;-0.374;2022-10-16T00:56:33;5.73;;;2.70;;
45692;SDS011;31402;44.752;-0.374;2022-10-16T00:58:59;7.53;;;2.40;;
45692;SDS011;31402;44.752;-0.374;2022-10-16T01:01:29;5.03;;;2.40;;
45692;SDS011;31402;44.752;-0.374;2022-10-16T01:03:55;4.32;;;2.50;;
45692;SDS011;31402;44.752;-0.374;2022-10-16T01:06:26;5.57;;;2.33;;
45692;SDS011;31402;44.752;-0.374;2022-10-16T01:09:07;6.10;;;2.10;;
45692;SDS011;31402;44.752;-0.374;2022-10-16T01:11:52;7.33;;;2.43;;
45692;SDS011;31402;44.752;-0.374;2022-10-16T01:14:32;3.63;;;2.10;;
45692;SDS011;31402;44.752;-0.374;2022-10-16T01:17:12;5.68;;;2.28;;
45692;SDS011;31402;44.752;-0.374;2022-10-16T01:20:17;5.73;;;2.40;;
45692;SDS011;31402;44.752;-0.374;2022-10-16T01:23:05;6.80;;;2.13;;
45692;SDS011;31402;44.752;-0.374;2022-10-16T01:31:21;3.57;;;2.30;;
45692;SDS011;31402;44.752;-0.374;2022-10-16T01:34:52;6.93;;;2.10;;
45692;SDS011;31402;44.752;-0.374;2022-10-16T01:36:53;4.00;;;2.00;;
45692;SDS011;31402;44.752;-0.374;2022-10-16T01:39:23;3.57;;;2.10;;
45692;SDS011;31402;44.752;-0.374;2022-10-16T01:41:55;5.13;;;2.10;;
45692;SDS011;31402;44.752;-0.374;2022-10-16T01:44:37;5.70;;;2.17;;
45692;SDS011;31402;44.752;-0.374;2022-10-16T01:47:04;5.73;;;2.30;;
45692;SDS011;31402;44.752;-0.374;2022-10-16T01:49:33;3.83;;;1.97;;
45692;SDS011;31402;44.752;-0.374;2022-10-16T01:52:02;5.83;;;2.20;;
45692;SDS011;31402;44.752;-0.374;2022-10-16T01:54:33;3.13;;;1.90;;
45692;SDS011;31402;44.752;-0.374;2022-10-16T01:57:03;2.63;;;1.93;;
45692;SDS011;31402;44.752;-0.374;2022-10-16T01:59:31;5.03;;;2.10;;
45692;SDS011;31402;44.752;-0.374;2022-10-16T02:02:04;3.10;;;1.93;;
45692;SDS011;31402;44.752;-0.374;2022-10-16T02:04:36;4.80;;;2.30;;
45692;SDS011;31402;44.752;-0.374;2022-10-16T02:07:04;3.20;;;2.00;;
45692;SDS011;31402;44.752;-0.374;2022-10-16T02:09:34;4.67;;;2.10;;
45692;SDS011;31402;44.752;-0.374;2022-10-16T02:12:03;3.97;;;2.30;;
45692;SDS011;31402;44.752;-0.374;2022-10-16T02:14:35;4.33;;;1.80;;
45692;SDS011;31402;44.752;-0.374;2022-10-16T02:17:15;4.60;;;2.03;;
45692;SDS011;31402;44.752;-0.374;2022-10-16T02:19:42;4.43;;;2.00;;
45692;SDS011;31402;44.752;-0.374;2022-10-16T02:22:14;5.93;;;2.33;;
45692;SDS011;31402;44.752;-0.374;2022-10-16T02:24:50;9.23;;;2.30;;
45692;SDS011;31402;44.752;-0.374;2022-10-16T02:29:58;4.17;;;2.33;;
45692;SDS011;31402;44.752;-0.374;2022-10-16T02:32:32;5.77;;;2.40;;
45692;SDS011;31402;44.752;-0.374;2022-10-16T02:35:00;5.03;;;2.60;;
45692;SDS011;31402;44.752;-0.374;2022-10-16T02:37:27;5.33;;;2.70;;
45692;SDS011;31402;44.752;-0.374;2022-10-16T02:39:54;4.03;;;2.57;;
45692;SDS011;31402;44.752;-0.374;2022-10-16T02:42:27;6.57;;;2.70;;
45692;SDS011;31402;44.752;-0.374;2022-10-16T02:45:00;4.90;;;2.80;;
45692;SDS011;31402;44.752;-0.374;2022-10-16T02:47:26;4.47;;;2.53;;
45692;SDS011;31402;44.752;-0.374;2022-10-16T02:49:52;7.13;;;2.80;;
45692;SDS011;31402;44.752;-0.374;2022-10-16T02:52:18;5.17;;;2.57;;
45692;SDS011;31402;44.752;-0.374;2022-10-16T02:54:44;5.03;;;2.30;;
45692;SDS011;31402;44.752;-0.374;2022-10-16T02:57:09;4.57;;;2.50;;
45692;SDS011;31402;44.752;-0.374;2022-10-16T02:59:35;5.30;;;2.60;;
45692;SDS011;31402;44.752;-0.374;2022-10-16T03:02:01;5.20;;;2.47;;
45692;SDS011;31402;44.752;-0.374;2022-10-16T03:04:27;3.73;;;2.60;;
45692;SDS011;31402;44.752;-0.374;2022-10-16T03:06:52;6.50;;;2.60;;
45692;SDS011;31402;44.752;-0.374;2022-10-16T03:09:18;5.37;;;3.13;;
45692;SDS011;31402;44.752;-0.374;2022-10-16T03:11:44;5.00;;;2.80;;
45692;SDS011;31402;44.752;-0.374;2022-10-16T03:14:09;5.93;;;2.80;;
45692;SDS011;31402;44.752;-0.374;2022-10-16T03:16:35;11.40;;;3.37;;
45692;SDS011;31402;44.752;-0.374;2022-10-16T03:19:02;5.20;;;2.90;;
45692;SDS011;31402;44.752;-0.374;2022-10-16T03:21:28;6.80;;;3.50;;
45692;SDS011;31402;44.752;-0.374;2022-10-16T03:23:53;4.07;;;2.93;;
45692;SDS011;31402;44.752;-0.374;2022-10-16T03:26:19;5.10;;;2.93;;
45692;SDS011;31402;44.752;-0.374;2022-10-16T03:28:45;8.10;;;3.00;;
45692;SDS011;31402;44.752;-0.374;2022-10-16T03:31:10;5.40;;;3.50;;
45692;SDS011;31402;44.752;-0.374;2022-10-16T03:33:37;7.57;;;3.87;;
45692;SDS011;31402;44.752;-0.374;2022-10-16T03:36:03;4.80;;;3.20;;
45692;SDS011;31402;44.752;-0.374;2022-10-16T03:38:29;9.40;;;3.73;;
45692;SDS011;31402;44.752;-0.374;2022-10-16T03:40:54;5.93;;;3.40;;
45692;SDS011;31402;44.752;-0.374;2022-10-16T03:43:20;9.00;;;3.90;;
45692;SDS011;31402;44.752;-0.374;2022-10-16T03:45:46;6.53;;;3.37;;
45692;SDS011;31402;44.752;-0.374;2022-10-16T03:48:12;7.43;;;3.30;;
45692;SDS011;31402;44.752;-0.374;2022-10-16T03:50:37;5.83;;;3.50;;
45692;SDS011;31402;44.752;-0.374;2022-10-16T03:53:03;7.40;;;3.73;;
45692;SDS011;31402;44.752;-0.374;2022-10-16T03:55:29;7.93;;;3.77;;
45692;SDS011;31402;44.752;-0.374;2022-10-16T03:57:55;6.73;;;3.20;;
45692;SDS011;31402;44.752;-0.374;2022-10-16T04:00:20;7.27;;;3.73;;
45692;SDS011;31402;44.752;-0.374;2022-10-16T04:02:46;4.77;;;3.47;;
45692;SDS011;31402;44.752;-0.374;2022-10-16T04:05:12;5.27;;;3.50;;
45692;SDS011;31402;44.752;-0.374;2022-10-16T04:07:37;6.03;;;3.80;;
45692;SDS011;31402;44.752;-0.374;2022-10-16T04:10:03;6.47;;;3.53;;
45692;SDS011;31402;44.752;-0.374;2022-10-16T04:12:29;6.93;;;3.50;;
45692;SDS011;31402;44.752;-0.374;2022-10-16T04:14:55;6.73;;;3.40;;
45692;SDS011;31402;44.752;-0.374;2022-10-16T04:17:21;5.00;;;3.50;;
45692;SDS011;31402;44.752;-0.374;2022-10-16T04:19:47;7.17;;;3.80;;
45692;SDS011;31402;44.752;-0.374;2022-10-16T04:22:12;9.13;;;4.07;;
45692;SDS011;31402;44.752;-0.374;2022-10-16T04:24:38;6.20;;;4.23;;
45692;SDS011;31402;44.752;-0.374;2022-10-16T04:27:04;7.50;;;3.73;;
45692;SDS011;31402;44.752;-0.374;2022-10-16T04:29:30;9.27;;;4.03;;
45692;SDS011;31402;44.752;-0.374;2022-10-16T04:31:55;7.47;;;4.00;;
45692;SDS011;31402;44.752;-0.374;2022-10-16T04:34:21;7.50;;;4.00;;
45692;SDS011;31402;44.752;-0.374;2022-10-16T04:36:47;7.30;;;4.20;;
45692;SDS011;31402;44.752;-0.374;2022-10-16T04:39:16;5.10;;;3.90;;
45692;SDS011;31402;44.752;-0.374;2022-10-16T04:41:42;6.57;;;3.63;;
45692;SDS011;31402;44.752;-0.374;2022-10-16T04:44:08;6.73;;;3.60;;
45692;SDS011;31402;44.752;-0.374;2022-10-16T04:46:33;6.43;;;3.73;;
45692;SDS011;31402;44.752;-0.374;2022-10-16T04:48:59;7.13;;;3.80;;
45692;SDS011;31402;44.752;-0.374;2022-10-16T04:51:25;6.23;;;3.83;;
45692;SDS011;31402;44.752;-0.374;2022-10-16T04:53:52;6.90;;;3.73;;
45692;SDS011;31402;44.752;-0.374;2022-10-16T04:56:19;5.30;;;4.00;;
45692;SDS011;31402;44.752;-0.374;2022-10-16T04:58:46;9.57;;;4.13;;
45692;SDS011;31402;44.752;-0.374;2022-10-16T05:01:12;9.20;;;4.03;;
45692;SDS011;31402;44.752;-0.374;2022-10-16T05:03:38;7.53;;;4.20;;
45692;SDS011;31402;44.752;-0.374;2022-10-16T05:06:07;5.47;;;3.80;;
45692;SDS011;31402;44.752;-0.374;2022-10-16T05:08:33;8.83;;;4.10;;
45692;SDS011;31402;44.752;-0.374;2022-10-16T05:10:59;6.93;;;3.90;;
45692;SDS011;31402;44.752;-0.374;2022-10-16T05:13:25;6.73;;;3.80;;
45692;SDS011;31402;44.752;-0.374;2022-10-16T05:15:51;7.00;;;4.03;;
45692;SDS011;31402;44.752;-0.374;2022-10-16T05:18:17;8.90;;;4.13;;
45692;SDS011;31402;44.752;-0.374;2022-10-16T05:20:42;8.70;;;4.10;;
45692;SDS011;31402;44.752;-0.374;2022-10-16T05:23:08;5.70;;;4.00;;
45692;SDS011;31402;44.752;-0.374;2022-10-16T05:25:35;9.13;;;4.57;;
45692;SDS011;31402;44.752;-0.374;2022-10-16T05:28:01;5.83;;;4.07;;
45692;SDS011;31402;44.752;-0.374;2022-10-16T05:30:27;6.80;;;3.83;;
45692;SDS011;31402;44.752;-0.374;2022-10-16T05:32:53;6.53;;;4.17;;
45692;SDS011;31402;44.752;-0.374;2022-10-16T05:35:19;7.20;;;4.70;;
45692;SDS011;31402;44.752;-0.374;2022-10-16T05:37:46;5.30;;;4.13;;
45692;SDS011;31402;44.752;-0.374;2022-10-16T05:40:12;7.63;;;4.10;;
45692;SDS011;31402;44.752;-0.374;2022-10-16T05:42:38;6.07;;;4.10;;
45692;SDS011;31402;44.752;-0.374;2022-10-16T05:45:05;7.93;;;4.37;;
45692;SDS011;31402;44.752;-0.374;2022-10-16T05:47:32;5.20;;;3.97;;
45692;SDS011;31402;44.752;-0.374;2022-10-16T05:49:57;7.43;;;4.43;;
45692;SDS011;31402;44.752;-0.374;2022-10-16T05:52:23;4.70;;;4.13;;
45692;SDS011;31402;44.752;-0.374;2022-10-16T05:54:49;7.03;;;4.40;;
45692;SDS011;31402;44.752;-0.374;2022-10-16T05:57:15;6.73;;;4.20;;
45692;SDS011;31402;44.752;-0.374;2022-10-16T05:59:40;7.37;;;4.23;;
45692;SDS011;31402;44.752;-0.374;2022-10-16T06:02:08;7.17;;;4.90;;
45692;SDS011;31402;44.752;-0.374;2022-10-16T06:04:37;8.53;;;4.70;;
45692;SDS011;31402;44.752;-0.374;2022-10-16T06:07:03;8.23;;;4.60;;
45692;SDS011;31402;44.752;-0.374;2022-10-16T06:09:29;7.37;;;4.80;;
45692;SDS011;31402;44.752;-0.374;2022-10-16T06:11:54;11.03;;;4.90;;
45692;SDS011;31402;44.752;-0.374;2022-10-16T06:14:20;8.37;;;4.37;;
45692;SDS011;31402;44.752;-0.374;2022-10-16T06:16:46;6.23;;;4.43;;
45692;SDS011;31402;44.752;-0.374;2022-10-16T06:19:12;5.93;;;4.30;;
45692;SDS011;31402;44.752;-0.374;2022-10-16T06:21:37;6.70;;;4.33;;
45692;SDS011;31402;44.752;-0.374;2022-10-16T06:24:03;8.70;;;4.50;;
45692;SDS011;31402;44.752;-0.374;2022-10-16T06:26:29;7.83;;;5.03;;
45692;SDS011;31402;44.752;-0.374;2022-10-16T06:28:56;7.10;;;4.57;;
45692;SDS011;31402;44.752;-0.374;2022-10-16T06:31:24;8.70;;;4.83;;
45692;SDS011;31402;44.752;-0.374;2022-10-16T06:33:55;9.63;;;4.90;;
45692;SDS011;31402;44.752;-0.374;2022-10-16T06:36:22;7.90;;;4.77;;
45692;SDS011;31402;44.752;-0.374;2022-10-16T06:38:49;6.43;;;4.50;;
45692;SDS011;31402;44.752;-0.374;2022-10-16T06:41:15;6.10;;;4.27;;
45692;SDS011;31402;44.752;-0.374;2022-10-16T06:43:44;4.80;;;3.93;;
45692;SDS011;31402;44.752;-0.374;2022-10-16T06:46:11;5.33;;;3.80;;
45692;SDS011;31402;44.752;-0.374;2022-10-16T06:48:38;7.87;;;4.47;;
45692;SDS011;31402;44.752;-0.374;2022-10-16T06:51:05;6.00;;;3.73;;
45692;SDS011;31402;44.752;-0.374;2022-10-16T06:53:43;7.43;;;3.90;;
45692;SDS011;31402;44.752;-0.374;2022-10-16T06:56:11;8.50;;;4.13;;
45692;SDS011;31402;44.752;-0.374;2022-10-16T06:58:39;8.17;;;3.83;;
45692;SDS011;31402;44.752;-0.374;2022-10-16T07:01:05;4.97;;;3.70;;
45692;SDS011;31402;44.752;-0.374;2022-10-16T07:03:31;7.33;;;3.77;;
45692;SDS011;31402;44.752;-0.374;2022-10-16T07:06:01;4.70;;;3.60;;
45692;SDS011;31402;44.752;-0.374;2022-10-16T07:08:30;4.70;;;3.30;;
45692;SDS011;31402;44.752;-0.374;2022-10-16T07:10:58;6.32;;;3.38;;
45692;SDS011;31402;44.752;-0.374;2022-10-16T07:13:25;6.25;;;3.28;;
45692;SDS011;31402;44.752;-0.374;2022-10-16T07:15:50;8.13;;;3.35;;
45692;SDS011;31402;44.752;-0.374;2022-10-16T07:18:16;4.43;;;3.08;;
45692;SDS011;31402;44.752;-0.374;2022-10-16T07:20:42;6.60;;;3.00;;
45692;SDS011;31402;44.752;-0.374;2022-10-16T07:23:07;5.82;;;3.03;;
45692;SDS011;31402;44.752;-0.374;2022-10-16T07:25:33;6.05;;;2.80;;
45692;SDS011;31402;44.752;-0.374;2022-10-16T07:27:59;5.88;;;2.90;;
45692;SDS011;31402;44.752;-0.374;2022-10-16T07:30:25;4.68;;;3.05;;
45692;SDS011;31402;44.752;-0.374;2022-10-16T07:32:50;6.60;;;3.20;;
45692;SDS011;31402;44.752;-0.374;2022-10-16T07:35:16;4.38;;;3.03;;
45692;SDS011;31402;44.752;-0.374;2022-10-16T07:37:45;4.90;;;3.40;;
45692;SDS011;31402;44.752;-0.374;2022-10-16T07:40:11;5.88;;;3.58;;
45692;SDS011;31402;44.752;-0.374;2022-10-16T07:42:38;5.97;;;3.53;;
45692;SDS011;31402;44.752;-0.374;2022-10-16T07:45:04;5.78;;;3.40;;
45692;SDS011;31402;44.752;-0.374;2022-10-16T07:47:30;8.23;;;4.00;;
45692;SDS011;31402;44.752;-0.374;2022-10-16T07:49:56;4.00;;;3.60;;
45692;SDS011;31402;44.752;-0.374;2022-10-16T07:52:21;8.48;;;4.40;;
45692;SDS011;31402;44.752;-0.374;2022-10-16T07:54:47;6.40;;;4.00;;
45692;SDS011;31402;44.752;-0.374;2022-10-16T07:57:13;4.88;;;3.75;;
45692;SDS011;31402;44.752;-0.374;2022-10-16T07:59:44;4.60;;;4.10;;
45692;SDS011;31402;44.752;-0.374;2022-10-16T08:02:10;7.40;;;4.00;;
45692;SDS011;31402;44.752;-0.374;2022-10-16T08:04:37;6.28;;;4.15;;
45692;SDS011;31402;44.752;-0.374;2022-10-16T08:07:02;7.20;;;4.30;;
45692;SDS011;31402;44.752;-0.374;2022-10-16T08:09:28;8.75;;;4.00;;
45692;SDS011;31402;44.752;-0.374;2022-10-16T08:11:54;8.05;;;4.40;;
45692;SDS011;31402;44.752;-0.374;2022-10-16T08:14:20;4.85;;;4.07;;
45692;SDS011;31402;44.752;-0.374;2022-10-16T08:16:46;4.93;;;3.83;;
45692;SDS011;31402;44.752;-0.374;2022-10-16T08:19:11;9.80;;;3.55;;
45692;SDS011;31402;44.752;-0.374;2022-10-16T08:21:37;6.78;;;3.80;;
45692;SDS011;31402;44.752;-0.374;2022-10-16T08:24:03;7.68;;;4.05;;
45692;SDS011;31402;44.752;-0.374;2022-10-16T08:26:29;6.03;;;4.00;;
45692;SDS011;31402;44.752;-0.374;2022-10-16T08:28:54;5.55;;;3.80;;
45692;SDS011;31402;44.752;-0.374;2022-10-16T08:31:20;7.85;;;3.80;;
45692;SDS011;31402;44.752;-0.374;2022-10-16T08:33:46;5.47;;;3.63;;
45692;SDS011;31402;44.752;-0.374;2022-10-16T08:36:13;6.72;;;4.15;;
45692;SDS011;31402;44.752;-0.374;2022-10-16T08:38:39;9.50;;;3.60;;
45692;SDS011;31402;44.752;-0.374;2022-10-16T08:48:56;4.93;;;3.40;;
45692;SDS011;31402;44.752;-0.374;2022-10-16T08:51:31;5.95;;;3.28;;
45692;SDS011;31402;44.752;-0.374;2022-10-16T08:54:03;4.93;;;3.50;;
45692;SDS011;31402;44.752;-0.374;2022-10-16T08:56:31;7.60;;;3.30;;
45692;SDS011;31402;44.752;-0.374;2022-10-16T08:58:58;5.45;;;3.25;;
45692;SDS011;31402;44.752;-0.374;2022-10-16T09:01:25;4.43;;;3.20;;
45692;SDS011;31402;44.752;-0.374;2022-10-16T09:10:15;5.95;;;3.40;;
45692;SDS011;31402;44.752;-0.374;2022-10-16T09:12:53;6.05;;;3.30;;
45692;SDS011;31402;44.752;-0.374;2022-10-16T09:18:38;5.18;;;3.17;;
45692;SDS011;31402;44.752;-0.374;2022-10-16T09:21:18;4.15;;;3.03;;
45692;SDS011;31402;44.752;-0.374;2022-10-16T09:23:59;6.25;;;2.85;;
45692;SDS011;31402;44.752;-0.374;2022-10-16T09:26:50;7.15;;;3.35;;
45692;SDS011;31402;44.752;-0.374;2022-10-16T09:29:17;5.78;;;2.92;;
45692;SDS011;31402;44.752;-0.374;2022-10-16T09:31:48;4.95;;;3.03;;
45692;SDS011;31402;44.752;-0.374;2022-10-16T09:36:57;6.97;;;3.10;;
45692;SDS011;31402;44.752;-0.374;2022-10-16T09:39:26;5.25;;;3.00;;
45692;SDS011;31402;44.752;-0.374;2022-10-16T09:41:52;7.43;;;3.30;;
45692;SDS011;31402;44.752;-0.374;2022-10-16T09:47:00;4.30;;;3.15;;
45692;SDS011;31402;44.752;-0.374;2022-10-16T09:49:30;3.60;;;3.00;;
45692;SDS011;31402;44.752;-0.374;2022-10-16T09:52:13;5.78;;;2.70;;
45692;SDS011;31402;44.752;-0.374;2022-10-16T09:54:53;6.65;;;3.03;;
45692;SDS011;31402;44.752;-0.374;2022-10-16T09:57:21;5.88;;;3.35;;
45692;SDS011;31402;44.752;-0.374;2022-10-16T10:02:18;5.07;;;3.08;;
45692;SDS011;31402;44.752;-0.374;2022-10-16T10:04:51;5.22;;;3.03;;
45692;SDS011;31402;44.752;-0.374;2022-10-16T10:07:26;5.50;;;3.22;;
45692;SDS011;31402;44.752;-0.374;2022-10-16T10:09:59;4.50;;;3.00;;
45692;SDS011;31402;44.752;-0.374;2022-10-16T10:12:29;4.40;;;2.75;;
45692;SDS011;31402;44.752;-0.374;2022-10-16T10:15:04;4.97;;;2.95;;
45692;SDS011;31402;44.752;-0.374;2022-10-16T10:17:44;6.70;;;3.20;;
45692;SDS011;31402;44.752;-0.374;2022-10-16T10:22:48;6.43;;;2.92;;
45692;SDS011;31402;44.752;-0.374;2022-10-16T10:46:41;4.07;;;2.60;;
45692;SDS011;31402;44.752;-0.374;2022-10-16T10:52:06;4.63;;;2.72;;
45692;SDS011;31402;44.752;-0.374;2022-10-16T10:57:55;4.95;;;2.40;;
45692;SDS011;31402;44.752;-0.374;2022-10-16T11:03:27;4.95;;;2.63;;
45692;SDS011;31402;44.752;-0.374;2022-10-16T11:09:11;4.10;;;2.40;;
45692;SDS011;31402;44.752;-0.374;2022-10-16T11:14:30;6.13;;;2.42;;
45692;SDS011;31402;44.752;-0.374;2022-10-16T11:17:13;5.75;;;2.40;;
45692;SDS011;31402;44.752;-0.374;2022-10-16T11:20:04;5.25;;;2.28;;
45692;SDS011;31402;44.752;-0.374;2022-10-16T11:25:26;6.05;;;2.40;;
45692;SDS011;31402;44.752;-0.374;2022-10-16T11:30:44;5.57;;;2.70;;
45692;SDS011;31402;44.752;-0.374;2022-10-16T11:36:18;6.55;;;2.70;;
45692;SDS011;31402;44.752;-0.374;2022-10-16T11:38:56;5.15;;;2.60;;
45692;SDS011;31402;44.752;-0.374;2022-10-16T11:41:38;4.97;;;2.30;;
45692;SDS011;31402;44.752;-0.374;2022-10-16T11:47:12;4.82;;;2.30;;
45692;SDS011;31402;44.752;-0.374;2022-10-16T11:49:50;4.57;;;2.33;;
45692;SDS011;31402;44.752;-0.374;2022-10-16T11:52:30;4.40;;;2.08;;
45692;SDS011;31402;44.752;-0.374;2022-10-16T11:57:47;3.25;;;2.20;;
45692;SDS011;31402;44.752;-0.374;2022-10-16T12:03:32;3.60;;;2.25;;
45692;SDS011;31402;44.752;-0.374;2022-10-16T12:08:51;4.18;;;2.25;;
45692;SDS011;31402;44.752;-0.374;2022-10-16T12:16:37;3.58;;;2.25;;
45692;SDS011;31402;44.752;-0.374;2022-10-16T12:19:14;3.28;;;2.15;;
45692;SDS011;31402;44.752;-0.374;2022-10-16T12:21:41;6.85;;;2.40;;
45692;SDS011;31402;44.752;-0.374;2022-10-16T12:26:56;3.05;;;1.95;;
45692;SDS011;31402;44.752;-0.374;2022-10-16T12:29:35;4.35;;;2.22;;
45692;SDS011;31402;44.752;-0.374;2022-10-16T12:32:50;2.92;;;2.05;;
45692;SDS011;31402;44.752;-0.374;2022-10-16T12:34:53;3.75;;;1.90;;
45692;SDS011;31402;44.752;-0.374;2022-10-16T12:39:45;4.63;;;2.00;;
45692;SDS011;31402;44.752;-0.374;2022-10-16T12:44:55;2.22;;;1.77;;
45692;SDS011;31402;44.752;-0.374;2022-10-16T12:47:22;3.10;;;1.90;;
45692;SDS011;31402;44.752;-0.374;2022-10-16T12:49:57;3.50;;;1.80;;
45692;SDS011;31402;44.752;-0.374;2022-10-16T12:54:58;2.88;;;2.03;;
45692;SDS011;31402;44.752;-0.374;2022-10-16T13:00:02;4.53;;;1.80;;
45692;SDS011;31402;44.752;-0.374;2022-10-16T13:22:54;3.95;;;1.85;;
45692;SDS011;31402;44.752;-0.374;2022-10-16T13:25:34;2.28;;;1.83;;
45692;SDS011;31402;44.752;-0.374;2022-10-16T13:28:05;3.33;;;2.20;;
45692;SDS011;31402;44.752;-0.374;2022-10-16T13:30:54;4.13;;;2.13;;
45692;SDS011;31402;44.752;-0.374;2022-10-16T13:33:23;3.88;;;2.15;;
45692;SDS011;31402;44.752;-0.374;2022-10-16T13:35:56;3.83;;;2.20;;
45692;SDS011;31402;44.752;-0.374;2022-10-16T13:38:23;4.53;;;2.40;;
45692;SDS011;31402;44.752;-0.374;2022-10-16T13:41:05;5.30;;;2.10;;
45692;SDS011;31402;44.752;-0.374;2022-10-16T13:46:18;4.45;;;2.25;;
45692;SDS011;31402;44.752;-0.374;2022-10-16T13:48:59;3.90;;;1.90;;
45692;SDS011;31402;44.752;-0.374;2022-10-16T13:51:26;5.30;;;2.00;;
45692;SDS011;31402;44.752;-0.374;2022-10-16T13:53:53;3.88;;;1.85;;
45692;SDS011;31402;44.752;-0.374;2022-10-16T13:56:22;4.80;;;2.20;;
45692;SDS011;31402;44.752;-0.374;2022-10-16T13:59:03;3.15;;;1.83;;
45692;SDS011;31402;44.752;-0.374;2022-10-16T14:01:47;3.40;;;2.22;;
45692;SDS011;31402;44.752;-0.374;2022-10-16T14:04:14;7.10;;;2.10;;
45692;SDS011;31402;44.752;-0.374;2022-10-16T14:06:42;3.95;;;1.90;;
45692;SDS011;31402;44.752;-0.374;2022-10-16T14:12:08;3.58;;;2.10;;
45692;SDS011;31402;44.752;-0.374;2022-10-16T14:14:43;5.10;;;2.28;;
45692;SDS011;31402;44.752;-0.374;2022-10-16T14:17:23;3.47;;;2.00;;
45692;SDS011;31402;44.752;-0.374;2022-10-16T14:19:59;4.32;;;2.00;;
45692;SDS011;31402;44.752;-0.374;2022-10-16T14:24:58;3.00;;;1.95;;
45692;SDS011;31402;44.752;-0.374;2022-10-16T14:27:34;5.90;;;2.10;;
45692;SDS011;31402;44.752;-0.374;2022-10-16T14:32:40;5.40;;;2.20;;
45692;SDS011;31402;44.752;-0.374;2022-10-16T14:35:21;2.40;;;1.70;;
45692;SDS011;31402;44.752;-0.374;2022-10-16T14:37:57;3.63;;;2.05;;
45692;SDS011;31402;44.752;-0.374;2022-10-16T14:40:31;7.28;;;1.85;;
45692;SDS011;31402;44.752;-0.374;2022-10-16T14:43:00;3.53;;;1.80;;
45692;SDS011;31402;44.752;-0.374;2022-10-16T14:45:28;4.03;;;2.00;;
45692;SDS011;31402;44.752;-0.374;2022-10-16T14:48:06;4.43;;;2.00;;
45692;SDS011;31402;44.752;-0.374;2022-10-16T14:50:41;2.10;;;1.90;;
45692;SDS011;31402;44.752;-0.374;2022-10-16T14:53:09;4.78;;;2.00;;
45692;SDS011;31402;44.752;-0.374;2022-10-16T14:55:37;4.60;;;1.98;;
45692;SDS011;31402;44.752;-0.374;2022-10-16T14:58:03;4.18;;;2.15;;
45692;SDS011;31402;44.752;-0.374;2022-10-16T15:00:30;5.30;;;2.03;;
45692;SDS011;31402;44.752;-0.374;2022-10-16T15:02:55;4.28;;;2.30;;
45692;SDS011;31402;44.752;-0.374;2022-10-16T15:05:25;4.15;;;2.03;;
45692;SDS011;31402;44.752;-0.374;2022-10-16T15:07:52;4.63;;;2.20;;
45692;SDS011;31402;44.752;-0.374;2022-10-16T15:10:20;6.65;;;2.45;;
45692;SDS011;31402;44.752;-0.374;2022-10-16T15:12:47;5.13;;;2.30;;
45692;SDS011;31402;44.752;-0.374;2022-10-16T15:17:52;4.95;;;2.58;;
45692;SDS011;31402;44.752;-0.374;2022-10-16T15:20:21;4.15;;;2.40;;
45692;SDS011;31402;44.752;-0.374;2022-10-16T15:22:50;4.38;;;2.72;;
45692;SDS011;31402;44.752;-0.374;2022-10-16T15:25:30;4.68;;;2.20;;
45692;SDS011;31402;44.752;-0.374;2022-10-16T15:27:56;4.90;;;2.20;;
45692;SDS011;31402;44.752;-0.374;2022-10-16T15:30:23;4.43;;;2.40;;
45692;SDS011;31402;44.752;-0.374;2022-10-16T15:32:49;4.28;;;2.10;;
45692;SDS011;31402;44.752;-0.374;2022-10-16T15:35:15;4.57;;;2.50;;
45692;SDS011;31402;44.752;-0.374;2022-10-16T15:37:41;6.43;;;2.53;;
45692;SDS011;31402;44.752;-0.374;2022-10-16T15:40:07;6.13;;;2.22;;
45692;SDS011;31402;44.752;-0.374;2022-10-16T15:42:35;3.55;;;2.10;;
45692;SDS011;31402;44.752;-0.374;2022-10-16T15:45:01;3.53;;;2.08;;
45692;SDS011;31402;44.752;-0.374;2022-10-16T15:47:28;4.75;;;2.30;;
45692;SDS011;31402;44.752;-0.374;2022-10-16T15:49:53;5.95;;;2.33;;
45692;SDS011;31402;44.752;-0.374;2022-10-16T15:52:19;3.97;;;2.10;;
45692;SDS011;31402;44.752;-0.374;2022-10-16T15:54:45;3.80;;;2.00;;
45692;SDS011;31402;44.752;-0.374;2022-10-16T15:57:11;3.75;;;1.80;;
45692;SDS011;31402;44.752;-0.374;2022-10-16T15:59:36;5.32;;;2.20;;
45692;SDS011;31402;44.752;-0.374;2022-10-16T16:02:02;4.65;;;2.08;;
45692;SDS011;31402;44.752;-0.374;2022-10-16T16:04:31;3.30;;;2.15;;
45692;SDS011;31402;44.752;-0.374;2022-10-16T16:06:57;6.07;;;2.03;;
45692;SDS011;31402;44.752;-0.374;2022-10-16T16:09:22;4.10;;;2.20;;
45692;SDS011;31402;44.752;-0.374;2022-10-16T16:11:48;4.25;;;2.17;;
45692;SDS011;31402;44.752;-0.374;2022-10-16T16:14:16;3.40;;;2.25;;
45692;SDS011;31402;44.752;-0.374;2022-10-16T16:16:41;2.77;;;2.10;;
45692;SDS011;31402;44.752;-0.374;2022-10-16T16:19:07;4.50;;;2.35;;
45692;SDS011;31402;44.752;-0.374;2022-10-16T16:21:34;6.30;;;2.40;;
45692;SDS011;31402;44.752;-0.374;2022-10-16T16:24:00;6.80;;;2.65;;
45692;SDS011;31402;44.752;-0.374;2022-10-16T16:26:32;5.63;;;2.50;;
45692;SDS011;31402;44.752;-0.374;2022-10-16T16:29:03;4.78;;;2.70;;
45692;SDS011;31402;44.752;-0.374;2022-10-16T16:31:29;5.47;;;2.38;;
45692;SDS011;31402;44.752;-0.374;2022-10-16T16:33:57;3.15;;;2.35;;
45692;SDS011;31402;44.752;-0.374;2022-10-16T16:36:23;5.25;;;2.33;;
45692;SDS011;31402;44.752;-0.374;2022-10-16T16:38:49;6.22;;;2.70;;
45692;SDS011;31402;44.752;-0.374;2022-10-16T16:41:17;6.13;;;3.17;;
45692;SDS011;31402;44.752;-0.374;2022-10-16T16:43:45;6.03;;;2.63;;
45692;SDS011;31402;44.752;-0.374;2022-10-16T16:46:12;5.57;;;2.72;;
45692;SDS011;31402;44.752;-0.374;2022-10-16T16:48:39;5.75;;;2.42;;
45692;SDS011;31402;44.752;-0.374;2022-10-16T16:51:06;6.97;;;2.88;;
45692;SDS011;31402;44.752;-0.374;2022-10-16T16:53:34;6.75;;;3.13;;
45692;SDS011;31402;44.752;-0.374;2022-10-16T16:56:04;7.18;;;2.60;;
45692;SDS011;31402;44.752;-0.374;2022-10-16T16:58:30;6.43;;;2.88;;
45692;SDS011;31402;44.752;-0.374;2022-10-16T17:00:57;10.23;;;2.83;;
45692;SDS011;31402;44.752;-0.374;2022-10-16T17:03:29;6.60;;;2.88;;
45692;SDS011;31402;44.752;-0.374;2022-10-16T17:05:59;9.75;;;2.85;;
45692;SDS011;31402;44.752;-0.374;2022-10-16T17:08:33;4.82;;;2.88;;
45692;SDS011;31402;44.752;-0.374;2022-10-16T17:11:00;5.63;;;3.05;;
45692;SDS011;31402;44.752;-0.374;2022-10-16T17:13:30;8.35;;;3.10;;